Time;durP1;ratioP1;P1;durP2;ratioP2;P2;SDS_P1;SDS_P2;PMS_P1;PMS_P2;Temp;Humidity;BMP_temperature;BMP_pressure;BME280_temperature;BME280_humidity;BME280_pressure;Samples;Min_cycle;Max_cycle;Signal;HPM_P1;HPM_P2
2022/05/25 00:02:02;;;;;;;1.20;1.10;;;14.90;98.00;;;;;;5080721;28;20455;-71
2022/05/25 00:04:30;;;;;;;1.20;1.00;;;14.90;98.00;;;;;;5088325;28;20933;-71
2022/05/25 00:06:57;;;;;;;1.30;1.20;;;14.80;98.00;;;;;;5084101;28;20497;-71
2022/05/25 00:09:26;;;;;;;1.40;1.30;;;14.80;98.00;;;;;;5081098;28;20457;-71
2022/05/25 00:11:54;;;;;;;1.20;1.17;;;14.70;98.00;;;;;;5083645;28;20560;-71
2022/05/25 00:14:21;;;;;;;1.60;1.47;;;14.70;98.00;;;;;;5085072;28;20462;-71
2022/05/25 00:16:48;;;;;;;1.20;1.10;;;14.30;98.00;;;;;;5082524;28;20952;-71
2022/05/25 00:22:00;;;;;;;1.20;1.00;;;14.20;98.00;;;;;;5080090;28;20448;-71
2022/05/25 00:24:28;;;;;;;1.63;1.30;;;14.20;98.00;;;;;;5087711;28;20467;-71
2022/05/25 00:26:56;;;;;;;1.30;1.10;;;14.00;98.00;;;;;;5083178;28;20487;-71
2022/05/25 00:29:23;;;;;;;1.30;1.03;;;14.00;98.00;;;;;;5083648;28;20453;-71
2022/05/25 00:31:50;;;;;;;1.70;1.13;;;14.20;98.00;;;;;;5083248;28;20467;-71
2022/05/25 00:34:17;;;;;;;1.20;1.10;;;14.20;98.00;;;;;;5083325;28;20455;-71
2022/05/25 00:36:45;;;;;;;1.33;1.10;;;14.30;98.00;;;;;;5083217;28;20452;-71
2022/05/25 00:39:12;;;;;;;1.90;1.10;;;14.40;98.00;;;;;;5086067;28;20460;-71
2022/05/25 00:41:39;;;;;;;1.83;1.30;;;14.30;98.00;;;;;;5088879;28;20528;-72
2022/05/25 00:44:09;;;;;;;1.40;1.03;;;14.30;98.00;;;;;;5086696;28;20460;-71
2022/05/25 00:46:38;;;;;;;1.20;1.10;;;14.30;98.00;;;;;;5083215;28;20575;-71
2022/05/25 00:49:07;;;;;;;1.60;1.30;;;14.20;98.00;;;;;;5084302;28;20470;-71
2022/05/25 00:51:41;;;;;;;1.43;1.30;;;14.30;98.00;;;;;;5083160;28;20456;-71
2022/05/25 00:54:11;;;;;;;1.20;1.00;;;14.30;98.00;;;;;;5083259;28;20459;-72
2022/05/25 00:56:42;;;;;;;1.20;1.10;;;14.30;98.00;;;;;;5091648;28;20451;-72
2022/05/25 00:59:13;;;;;;;1.20;1.00;;;14.40;98.00;;;;;;5084219;28;20506;-71
2022/05/25 01:01:41;;;;;;;1.20;1.00;;;14.40;98.00;;;;;;5087257;28;20478;-71
2022/05/25 01:04:09;;;;;;;1.30;1.23;;;14.30;98.00;;;;;;5090580;28;20452;-71
2022/05/25 01:07:11;;;;;;;1.20;1.10;;;14.30;98.00;;;;;;5091747;28;20490;-71
2022/05/25 01:09:51;;;;;;;1.20;1.00;;;14.40;98.00;;;;;;5092707;28;20926;-71
2022/05/25 01:12:29;;;;;;;1.30;1.20;;;14.40;98.00;;;;;;5089034;28;20453;-71
2022/05/25 01:15:09;;;;;;;1.20;1.00;;;14.50;98.00;;;;;;5091371;28;20989;-71
2022/05/25 01:17:50;;;;;;;1.30;1.00;;;14.40;98.00;;;;;;5091578;28;20519;-71
2022/05/25 01:20:25;;;;;;;1.63;1.17;;;14.30;98.00;;;;;;5089734;28;20466;-71
2022/05/25 01:23:17;;;;;;;1.47;1.00;;;14.10;98.00;;;;;;5093238;28;20488;-71
2022/05/25 01:26:12;;;;;;;1.20;1.00;;;14.00;98.00;;;;;;5077829;28;20793;-72
2022/05/25 01:28:56;;;;;;;1.20;1.00;;;13.90;98.00;;;;;;5087078;28;20463;-71
2022/05/25 01:31:28;;;;;;;1.30;1.10;;;14.10;98.00;;;;;;5090330;28;20461;-71
2022/05/25 01:33:58;;;;;;;1.20;1.00;;;14.20;98.00;;;;;;5086526;28;20466;-71
2022/05/25 01:36:35;;;;;;;1.30;1.00;;;14.20;98.00;;;;;;5086561;28;20457;-71
2022/05/25 01:39:06;;;;;;;1.30;1.07;;;14.30;98.00;;;;;;5087067;28;20458;-71
2022/05/25 01:41:40;;;;;;;1.40;1.10;;;14.20;98.00;;;;;;5068416;28;20798;-71
2022/05/25 01:44:11;;;;;;;1.77;1.10;;;14.30;98.00;;;;;;5094891;28;20478;-71
2022/05/25 01:46:44;;;;;;;1.33;1.20;;;14.40;98.00;;;;;;5084477;28;20480;-71
2022/05/25 01:49:15;;;;;;;1.30;1.17;;;14.30;98.00;;;;;;5093281;28;20454;-71
2022/05/25 01:51:47;;;;;;;1.20;1.07;;;14.20;98.00;;;;;;5091314;28;20489;-71
2022/05/25 01:54:19;;;;;;;1.50;1.40;;;14.30;98.00;;;;;;5088564;28;20471;-71
2022/05/25 01:56:50;;;;;;;1.20;1.03;;;14.40;98.00;;;;;;5085590;28;20493;-71
2022/05/25 01:59:19;;;;;;;1.20;1.00;;;14.40;98.00;;;;;;5085766;28;20471;-71
2022/05/25 02:04:19;;;;;;;1.43;1.20;;;14.50;98.00;;;;;;5090073;28;20463;-71
2022/05/25 02:04:44;;;;;;;1.20;1.10;;;14.50;98.00;;;;;;5084172;28;20940;-71
2022/05/25 02:07:22;;;;;;;1.33;1.20;;;14.50;98.00;;;;;;5087776;28;20543;-71
2022/05/25 02:10:14;;;;;;;1.73;1.30;;;14.40;98.00;;;;;;5087276;28;20464;-71
2022/05/25 02:13:09;;;;;;;1.40;1.30;;;14.30;98.00;;;;;;5082491;28;20498;-71
2022/05/25 02:15:45;;;;;;;1.60;1.33;;;14.20;98.00;;;;;;5083250;28;20553;-71
2022/05/25 02:18:26;;;;;;;1.40;1.10;;;14.00;98.00;;;;;;5083388;28;20473;-71
2022/05/25 02:21:00;;;;;;;1.43;1.20;;;13.90;98.00;;;;;;5094117;28;20464;-71
2022/05/25 02:23:32;;;;;;;1.20;1.10;;;13.90;98.00;;;;;;5087090;28;20456;-71
2022/05/25 02:26:06;;;;;;;1.20;1.07;;;14.10;98.00;;;;;;5082025;28;20455;-71
2022/05/25 02:28:37;;;;;;;1.60;1.23;;;14.30;98.00;;;;;;5067693;28;20818;-71
2022/05/25 02:31:07;;;;;;;1.20;1.00;;;14.40;98.00;;;;;;5093887;28;20553;-71
2022/05/25 02:33:39;;;;;;;1.33;1.20;;;14.20;98.00;;;;;;5091524;28;21002;-71
2022/05/25 02:36:08;;;;;;;1.60;1.47;;;14.10;98.00;;;;;;5086495;28;20462;-71
2022/05/25 02:38:37;;;;;;;1.50;1.20;;;14.10;98.00;;;;;;5086246;28;20460;-71
2022/05/25 02:41:06;;;;;;;1.20;1.00;;;14.10;98.00;;;;;;5080914;28;20554;-71
2022/05/25 02:43:36;;;;;;;1.20;1.10;;;14.10;98.00;;;;;;5084987;28;20506;-71
2022/05/25 02:46:03;;;;;;;1.30;1.20;;;14.00;98.00;;;;;;5084977;28;20550;-71
2022/05/25 02:48:30;;;;;;;1.20;1.10;;;14.10;98.00;;;;;;5093264;28;20453;-71
2022/05/25 02:51:00;;;;;;;1.20;1.10;;;14.20;98.00;;;;;;5084095;28;20536;-71
2022/05/25 02:53:27;;;;;;;1.30;1.10;;;14.30;98.00;;;;;;5096210;28;20964;-71
2022/05/25 02:55:54;;;;;;;1.40;1.07;;;14.30;98.00;;;;;;5088162;28;20452;-71
2022/05/25 02:58:21;;;;;;;1.20;1.00;;;14.30;98.00;;;;;;5088952;28;20458;-71
2022/05/25 03:00:48;;;;;;;1.40;1.10;;;14.40;98.00;;;;;;5090477;28;20552;-71
2022/05/25 03:03:15;;;;;;;1.20;1.10;;;14.40;98.00;;;;;;5092545;28;20446;-71
2022/05/25 03:05:43;;;;;;;1.20;1.10;;;14.30;98.00;;;;;;5092722;28;20463;-71
2022/05/25 03:08:12;;;;;;;1.20;1.00;;;14.10;98.00;;;;;;5084443;28;20484;-71
2022/05/25 03:10:44;;;;;;;1.20;1.00;;;14.20;98.00;;;;;;5082222;28;20459;-71
2022/05/25 03:13:12;;;;;;;1.40;1.07;;;14.30;98.00;;;;;;5087593;28;20472;-71
2022/05/25 03:15:40;;;;;;;1.47;1.40;;;14.30;98.00;;;;;;5089187;28;20455;-71
2022/05/25 03:18:09;;;;;;;1.60;1.27;;;14.30;98.00;;;;;;5085784;28;20463;-71
2022/05/25 03:20:37;;;;;;;1.90;1.47;;;14.10;98.00;;;;;;5092892;28;20462;-71
2022/05/25 03:23:04;;;;;;;1.20;1.10;;;14.00;98.00;;;;;;5086547;28;20466;-71
2022/05/25 03:25:34;;;;;;;1.47;1.10;;;14.10;98.00;;;;;;5084049;28;20455;-71
2022/05/25 03:28:05;;;;;;;1.20;1.00;;;14.10;98.00;;;;;;5085024;28;20490;-71
2022/05/25 03:30:32;;;;;;;6.90;3.10;;;14.00;98.00;;;;;;5084334;28;20454;-71
2022/05/25 03:33:00;;;;;;;1.20;1.10;;;13.90;98.00;;;;;;5080725;28;21109;-71
2022/05/25 03:35:27;;;;;;;1.47;1.00;;;13.90;98.00;;;;;;5082056;28;20460;-71
2022/05/25 03:37:55;;;;;;;1.30;1.10;;;14.00;98.00;;;;;;5088873;28;20962;-71
2022/05/25 03:40:22;;;;;;;1.43;1.00;;;14.00;98.00;;;;;;5087586;28;20792;-71
2022/05/25 03:42:51;;;;;;;1.20;1.00;;;13.90;98.00;;;;;;5072023;28;20875;-71
2022/05/25 03:45:20;;;;;;;1.20;1.07;;;14.10;98.00;;;;;;5083935;28;20986;-71
2022/05/25 03:47:47;;;;;;;1.33;1.20;;;14.10;98.00;;;;;;5092319;28;20501;-71
2022/05/25 03:50:18;;;;;;;1.27;1.17;;;14.00;98.00;;;;;;5069043;28;20473;-71
2022/05/25 03:52:45;;;;;;;1.30;1.13;;;14.00;98.00;;;;;;5084007;28;20841;-71
2022/05/25 03:55:12;;;;;;;1.20;1.10;;;14.00;98.00;;;;;;5072079;28;20467;-71
2022/05/25 03:57:39;;;;;;;1.33;1.17;;;14.10;98.00;;;;;;5088673;28;20454;-71
2022/05/25 04:00:09;;;;;;;1.40;1.20;;;14.00;98.00;;;;;;5085134;28;20924;-71
2022/05/25 04:02:37;;;;;;;1.20;1.10;;;14.10;98.00;;;;;;5066376;28;20940;-71
2022/05/25 04:05:12;;;;;;;1.33;1.23;;;14.10;98.00;;;;;;5084735;28;20466;-71
2022/05/25 04:07:41;;;;;;;1.30;1.10;;;14.10;98.00;;;;;;5083622;28;20581;-71
2022/05/25 04:10:12;;;;;;;1.50;1.20;;;14.30;98.00;;;;;;5066300;28;20457;-71
2022/05/25 04:12:40;;;;;;;1.20;1.00;;;14.30;98.00;;;;;;5083791;28;20456;-71
2022/05/25 04:15:12;;;;;;;1.97;1.40;;;14.30;98.00;;;;;;5087521;28;20890;-71
2022/05/25 04:17:40;;;;;;;1.50;1.20;;;14.30;98.00;;;;;;5081873;28;20473;-71
2022/05/25 04:20:09;;;;;;;1.83;1.30;;;14.20;98.00;;;;;;5092120;28;20877;-71
2022/05/25 04:22:36;;;;;;;1.20;1.00;;;14.20;98.00;;;;;;5087183;28;20516;-71
2022/05/25 04:25:05;;;;;;;2.13;1.23;;;14.20;98.00;;;;;;5084156;28;20908;-71
2022/05/25 04:27:32;;;;;;;1.20;1.00;;;14.10;98.00;;;;;;5083381;28;20484;-71
2022/05/25 04:29:59;;;;;;;1.20;1.00;;;14.20;98.00;;;;;;5083824;28;20998;-71
2022/05/25 04:32:27;;;;;;;1.97;1.30;;;14.30;98.00;;;;;;5083220;28;20443;-71
2022/05/25 04:34:57;;;;;;;1.37;1.13;;;14.30;98.00;;;;;;5084549;28;20457;-71
2022/05/25 04:40:10;;;;;;;1.30;1.00;;;14.00;98.00;;;;;;5084184;28;20438;-71
2022/05/25 04:42:37;;;;;;;1.30;1.10;;;14.00;98.00;;;;;;5092066;28;20527;-71
2022/05/25 04:45:06;;;;;;;1.30;1.23;;;13.90;98.00;;;;;;5084898;28;20460;-71
2022/05/25 04:47:37;;;;;;;1.50;1.30;;;13.80;98.00;;;;;;5092222;28;20528;-71
2022/05/25 04:50:07;;;;;;;1.70;1.40;;;13.80;98.00;;;;;;5088286;28;21012;-71
2022/05/25 04:52:35;;;;;;;1.20;1.10;;;13.90;98.00;;;;;;5086767;28;20524;-71
2022/05/25 04:55:02;;;;;;;1.30;1.10;;;14.00;98.00;;;;;;5088630;28;20467;-71
2022/05/25 04:57:30;;;;;;;1.20;1.00;;;14.10;98.00;;;;;;5088255;28;20811;-71
2022/05/25 05:00:00;;;;;;;1.20;1.00;;;14.10;98.00;;;;;;5087128;28;20473;-71
2022/05/25 05:02:28;;;;;;;1.43;1.17;;;14.20;98.00;;;;;;5087751;28;20529;-71
2022/05/25 05:04:57;;;;;;;1.30;1.10;;;14.20;98.00;;;;;;5091895;28;20467;-71
2022/05/25 05:07:31;;;;;;;1.20;0.90;;;14.30;98.00;;;;;;5087468;28;20475;-71
2022/05/25 05:09:59;;;;;;;1.20;1.00;;;14.30;98.00;;;;;;5096311;28;20455;-71
2022/05/25 05:12:26;;;;;;;1.20;1.10;;;14.40;98.00;;;;;;5085365;28;20502;-71
2022/05/25 05:14:54;;;;;;;1.20;1.10;;;14.40;98.00;;;;;;5088612;28;20885;-71
2022/05/25 05:17:21;;;;;;;1.20;1.10;;;14.50;98.00;;;;;;5087041;28;20477;-71
2022/05/25 05:19:48;;;;;;;1.20;1.00;;;14.60;98.00;;;;;;5086586;28;20454;-71
2022/05/25 05:22:17;;;;;;;1.20;1.00;;;14.80;98.00;;;;;;5095291;28;20455;-71
2022/05/25 05:24:44;;;;;;;1.20;1.00;;;14.80;98.00;;;;;;5090055;28;20463;-71
2022/05/25 05:27:11;;;;;;;1.30;1.07;;;14.70;98.00;;;;;;5080940;28;20457;-71
2022/05/25 05:29:38;;;;;;;1.37;1.10;;;14.60;98.00;;;;;;5087879;28;20952;-71
2022/05/25 05:32:06;;;;;;;1.70;1.40;;;14.60;98.00;;;;;;5087694;28;20465;-71
2022/05/25 05:34:33;;;;;;;1.30;1.10;;;14.70;98.00;;;;;;5068433;28;20454;-71
2022/05/25 05:37:05;;;;;;;1.20;1.10;;;14.70;98.00;;;;;;5086189;28;20444;-71
2022/05/25 05:39:38;;;;;;;1.60;1.30;;;14.80;98.00;;;;;;5094468;28;20466;-71
2022/05/25 05:42:08;;;;;;;1.40;1.40;;;14.80;98.00;;;;;;5085890;28;20459;-71
2022/05/25 05:44:49;;;;;;;1.30;1.00;;;14.80;98.00;;;;;;5085711;28;20529;-71
2022/05/25 05:47:19;;;;;;;1.80;1.33;;;14.90;98.00;;;;;;5086700;28;20806;-70
2022/05/25 05:49:48;;;;;;;1.80;1.20;;;15.00;98.00;;;;;;5091094;28;20460;-70
2022/05/25 05:52:15;;;;;;;1.63;1.53;;;15.20;98.00;;;;;;5088795;28;20471;-69
2022/05/25 05:54:44;;;;;;;1.80;1.23;;;15.30;98.00;;;;;;5085652;28;20451;-75
2022/05/25 05:57:19;;;;;;;1.40;1.20;;;15.50;98.00;;;;;;5088480;28;20458;-75
2022/05/25 05:59:46;;;;;;;2.13;1.43;;;15.60;98.00;;;;;;5086260;28;20463;-75
2022/05/25 06:02:13;;;;;;;1.20;1.10;;;15.80;98.00;;;;;;5078003;28;20461;-75
2022/05/25 06:04:40;;;;;;;2.10;1.50;;;15.90;98.00;;;;;;5086044;28;20460;-75
2022/05/25 06:07:08;;;;;;;1.53;1.30;;;16.00;98.00;;;;;;5089754;28;20519;-75
2022/05/25 06:09:36;;;;;;;1.47;1.23;;;16.00;98.00;;;;;;5091765;28;20462;-75
2022/05/25 06:12:05;;;;;;;1.20;1.10;;;16.00;98.00;;;;;;5089070;28;20462;-75
2022/05/25 06:14:32;;;;;;;1.37;1.23;;;16.00;98.00;;;;;;5089934;28;20517;-76
2022/05/25 06:19:44;;;;;;;1.30;1.30;;;15.90;98.00;;;;;;5085546;28;20597;-76
2022/05/25 06:22:14;;;;;;;1.47;1.10;;;15.90;98.00;;;;;;5086914;28;20527;-75
2022/05/25 06:24:46;;;;;;;1.47;1.20;;;15.70;98.00;;;;;;5085780;28;20517;-75
2022/05/25 06:27:15;;;;;;;1.20;1.20;;;15.80;98.00;;;;;;5085579;28;20452;-75
2022/05/25 06:29:44;;;;;;;1.20;1.10;;;16.00;98.00;;;;;;5085410;28;20445;-75
2022/05/25 06:32:13;;;;;;;1.70;1.20;;;16.10;98.00;;;;;;5088469;28;20453;-75
2022/05/25 06:34:42;;;;;;;1.47;1.33;;;16.20;98.00;;;;;;5089224;28;20458;-75
2022/05/25 06:37:14;;;;;;;1.20;1.00;;;16.10;98.00;;;;;;5082759;28;20471;-76
2022/05/25 06:39:42;;;;;;;1.97;1.20;;;16.20;98.00;;;;;;5091580;28;20951;-75
2022/05/25 06:42:10;;;;;;;1.23;1.10;;;16.20;98.00;;;;;;5089450;28;20840;-75
2022/05/25 06:44:44;;;;;;;2.13;1.47;;;16.40;98.00;;;;;;5085103;28;20460;-75
2022/05/25 06:47:15;;;;;;;1.40;1.10;;;16.30;98.00;;;;;;5085402;28;20462;-76
2022/05/25 06:49:44;;;;;;;4.40;1.97;;;16.20;98.00;;;;;;5085740;28;20464;-76
2022/05/25 06:52:12;;;;;;;1.20;1.00;;;16.30;98.00;;;;;;5084880;28;20468;-75
2022/05/25 06:54:45;;;;;;;1.30;1.17;;;16.50;98.00;;;;;;5086551;28;20599;-76
2022/05/25 06:57:12;;;;;;;1.20;1.07;;;16.60;98.00;;;;;;5092878;28;20463;-75
2022/05/25 06:59:41;;;;;;;1.20;1.00;;;16.60;98.00;;;;;;5089727;28;20456;-76
2022/05/25 07:02:08;;;;;;;1.83;1.13;;;16.70;98.00;;;;;;5082598;28;20449;-76
2022/05/25 07:04:36;;;;;;;1.30;1.30;;;16.90;98.00;;;;;;5089919;28;20459;-75
2022/05/25 07:07:04;;;;;;;1.30;1.13;;;17.10;98.00;;;;;;5086055;28;20486;-75
2022/05/25 07:09:31;;;;;;;1.20;1.20;;;17.20;98.00;;;;;;5084856;28;20486;-75
2022/05/25 07:11:59;;;;;;;1.40;1.20;;;17.40;98.00;;;;;;5077259;28;20475;-75
2022/05/25 07:14:27;;;;;;;1.60;1.37;;;17.50;98.00;;;;;;5071072;28;20547;-75
2022/05/25 07:16:59;;;;;;;1.53;1.20;;;17.50;98.00;;;;;;5081560;28;20457;-75
2022/05/25 07:19:27;;;;;;;1.30;1.23;;;17.60;98.00;;;;;;5064977;28;20465;-75
2022/05/25 07:21:56;;;;;;;1.30;1.10;;;17.80;98.00;;;;;;5089606;28;20445;-75
2022/05/25 07:24:23;;;;;;;1.40;1.20;;;18.00;98.00;;;;;;5087985;28;20502;-75
2022/05/25 07:26:50;;;;;;;1.20;1.00;;;18.00;98.00;;;;;;5084367;28;20542;-75
2022/05/25 07:29:19;;;;;;;1.30;1.10;;;17.90;98.00;;;;;;5084240;28;20491;-75
2022/05/25 07:31:52;;;;;;;1.80;1.40;;;17.70;98.00;;;;;;5084657;28;20453;-76
2022/05/25 07:34:23;;;;;;;1.20;1.20;;;17.50;98.00;;;;;;5084275;28;20539;-74
2022/05/25 07:36:54;;;;;;;1.57;1.33;;;17.50;98.00;;;;;;5083957;28;20449;-74
2022/05/25 07:39:24;;;;;;;1.20;1.10;;;17.50;98.00;;;;;;5085638;28;20500;-72
2022/05/25 07:41:56;;;;;;;1.30;1.10;;;17.50;98.00;;;;;;5088796;28;20460;-75
2022/05/25 07:44:31;;;;;;;1.20;1.10;;;17.30;98.00;;;;;;5086416;28;20456;-74
2022/05/25 07:46:58;;;;;;;1.20;1.10;;;17.40;98.00;;;;;;5088966;28;20448;-74
2022/05/25 07:49:27;;;;;;;1.27;1.27;;;17.60;98.00;;;;;;5087365;28;20772;-74
2022/05/25 07:51:55;;;;;;;1.20;1.07;;;17.70;98.00;;;;;;5086687;28;20458;-74
2022/05/25 07:54:22;;;;;;;1.30;1.10;;;17.90;98.00;;;;;;5083127;28;20464;-73
2022/05/25 07:56:49;;;;;;;1.80;1.53;;;17.90;97.90;;;;;;5083023;28;20449;-74
2022/05/25 07:59:17;;;;;;;1.20;1.13;;;17.90;98.00;;;;;;5091706;28;20448;-75
2022/05/25 08:07:24;;;;;;;1.40;1.27;;;17.70;98.00;;;;;;5084491;28;20456;-74
2022/05/25 08:09:54;;;;;;;1.20;1.10;;;17.90;98.00;;;;;;5087565;28;20491;-73
2022/05/25 08:12:23;;;;;;;1.70;1.30;;;18.00;97.30;;;;;;5086535;28;20456;-74
2022/05/25 08:14:50;;;;;;;1.50;1.10;;;18.10;95.00;;;;;;5068275;28;20480;-74
2022/05/25 08:17:17;;;;;;;1.30;1.10;;;18.30;98.00;;;;;;5084095;28;20977;-74
2022/05/25 08:19:45;;;;;;;2.00;1.20;;;18.50;98.00;;;;;;5064863;28;20458;-74
2022/05/25 08:22:12;;;;;;;1.67;1.37;;;18.60;95.30;;;;;;5085612;28;20443;-74
2022/05/25 08:24:39;;;;;;;1.20;1.10;;;18.70;94.30;;;;;;5081693;28;20870;-75
2022/05/25 08:27:07;;;;;;;1.47;1.20;;;18.80;94.60;;;;;;5080677;28;20926;-76
2022/05/25 08:29:34;;;;;;;1.87;1.33;;;18.80;94.80;;;;;;5068176;28;21090;-76
2022/05/25 08:32:01;;;;;;;1.40;1.23;;;19.10;92.80;;;;;;5083072;28;20513;-75
2022/05/25 08:34:29;;;;;;;1.50;1.30;;;19.20;93.30;;;;;;5087072;28;20460;-75
2022/05/25 08:36:58;;;;;;;1.47;1.20;;;19.20;92.80;;;;;;5074458;28;20457;-75
2022/05/25 08:39:25;;;;;;;2.23;1.33;;;19.40;94.30;;;;;;5071732;28;20781;-75
2022/05/25 08:41:57;;;;;;;1.40;1.27;;;19.60;93.30;;;;;;5082070;28;20452;-75
2022/05/25 08:44:25;;;;;;;1.50;1.10;;;19.70;94.30;;;;;;5082459;28;21148;-75
2022/05/25 08:47:11;;;;;;;1.43;1.30;;;19.70;90.40;;;;;;5081037;28;20452;-75
2022/05/25 08:49:42;;;;;;;1.27;1.23;;;19.70;91.10;;;;;;5076325;28;20579;-75
2022/05/25 08:52:23;;;;;;;1.27;1.13;;;19.80;91.40;;;;;;5082352;28;20499;-75
2022/05/25 08:54:50;;;;;;;1.50;1.17;;;19.80;88.50;;;;;;5090338;28;20467;-75
2022/05/25 08:57:25;;;;;;;1.83;1.50;;;19.70;86.80;;;;;;5085343;28;20457;-75
2022/05/25 08:59:57;;;;;;;1.57;1.47;;;19.50;89.30;;;;;;5087721;28;20452;-75
2022/05/25 09:02:30;;;;;;;1.20;1.03;;;19.70;88.60;;;;;;5086831;28;20941;-76
2022/05/25 09:05:03;;;;;;;1.40;1.30;;;19.90;90.40;;;;;;5091694;28;20463;-75
2022/05/25 09:07:39;;;;;;;1.60;1.50;;;20.20;88.80;;;;;;5083198;28;20479;-76
2022/05/25 09:10:09;;;;;;;1.20;1.20;;;20.20;88.00;;;;;;5073771;28;20495;-75
2022/05/25 09:12:40;;;;;;;1.67;1.37;;;20.10;88.40;;;;;;5081936;28;20453;-75
2022/05/25 09:15:16;;;;;;;1.80;1.40;;;19.90;90.50;;;;;;5078583;28;20460;-75
2022/05/25 09:17:48;;;;;;;1.37;1.23;;;19.70;89.90;;;;;;5081225;28;20471;-76
2022/05/25 09:20:19;;;;;;;1.60;1.23;;;19.60;89.20;;;;;;5087060;28;20460;-76
2022/05/25 09:22:48;;;;;;;1.50;1.40;;;19.70;88.90;;;;;;5091777;28;20464;-75
2022/05/25 09:25:17;;;;;;;1.37;1.20;;;19.90;91.00;;;;;;5083238;28;20453;-76
2022/05/25 09:27:47;;;;;;;2.27;1.30;;;20.20;89.00;;;;;;5091588;28;20527;-75
2022/05/25 09:30:15;;;;;;;1.73;1.30;;;20.40;88.00;;;;;;5089086;28;20878;-75
2022/05/25 09:32:50;;;;;;;1.40;1.23;;;20.30;87.30;;;;;;5089999;28;20468;-75
2022/05/25 09:35:21;;;;;;;1.40;1.20;;;20.60;90.10;;;;;;5094170;28;20550;-75
2022/05/25 09:37:55;;;;;;;1.80;1.60;;;20.80;90.50;;;;;;5086509;28;20461;-76
2022/05/25 09:40:26;;;;;;;2.60;1.40;;;20.70;86.10;;;;;;5088058;28;20449;-75
2022/05/25 09:42:56;;;;;;;1.30;1.20;;;20.40;86.40;;;;;;5086464;28;20452;-75
2022/05/25 09:45:24;;;;;;;1.90;1.40;;;20.30;90.00;;;;;;5087600;28;20950;-75
2022/05/25 09:47:52;;;;;;;2.03;1.47;;;20.40;86.40;;;;;;5090983;28;20452;-75
2022/05/25 09:50:31;;;;;;;1.60;1.40;;;20.70;87.10;;;;;;5089306;28;21114;-74
2022/05/25 09:53:03;;;;;;;4.50;1.30;;;20.70;88.80;;;;;;5068967;28;20460;-74
2022/05/25 09:55:35;;;;;;;1.30;1.30;;;20.50;87.20;;;;;;5087494;28;20455;-75
2022/05/25 09:58:06;;;;;;;1.20;1.00;;;20.60;86.50;;;;;;5086391;28;20969;-75
2022/05/25 10:00:43;;;;;;;1.53;1.30;;;20.70;86.30;;;;;;5085658;28;20530;-73
2022/05/25 10:03:14;;;;;;;2.70;1.57;;;20.80;87.30;;;;;;5085915;28;20457;-75
2022/05/25 10:05:56;;;;;;;1.20;1.20;;;20.80;87.50;;;;;;5085626;28;20480;-74
2022/05/25 10:08:31;;;;;;;1.90;1.30;;;20.70;87.50;;;;;;5078761;28;20768;-73
2022/05/25 10:11:12;;;;;;;2.03;1.30;;;20.70;88.10;;;;;;5080314;28;20799;-74
2022/05/25 10:13:41;;;;;;;1.20;1.13;;;20.70;88.20;;;;;;5080282;28;20452;-75
2022/05/25 10:16:27;;;;;;;1.47;1.30;;;20.40;86.30;;;;;;5079986;28;20458;-75
2022/05/25 10:18:56;;;;;;;2.23;1.43;;;20.10;87.00;;;;;;5081929;28;20463;-74
2022/05/25 10:21:31;;;;;;;1.70;1.30;;;19.90;88.00;;;;;;5079582;28;20483;-74
2022/05/25 10:24:01;;;;;;;1.93;1.40;;;19.80;87.90;;;;;;5074323;28;20463;-75
2022/05/25 10:26:33;;;;;;;1.30;1.30;;;19.80;88.40;;;;;;5079808;28;20461;-74
2022/05/25 10:29:07;;;;;;;2.47;1.50;;;19.70;88.60;;;;;;5079696;28;20492;-74
2022/05/25 10:37:20;;;;;;;1.43;1.30;;;19.70;89.80;;;;;;5085667;28;20446;-75
2022/05/25 10:40:00;;;;;;;1.50;1.50;;;19.80;87.40;;;;;;5088869;28;20459;-75
2022/05/25 10:42:29;;;;;;;1.80;1.60;;;20.00;87.60;;;;;;5082811;28;20484;-75
2022/05/25 10:45:06;;;;;;;2.00;1.33;;;20.20;87.30;;;;;;5079163;28;20461;-74
2022/05/25 10:48:07;;;;;;;1.90;1.30;;;20.50;89.10;;;;;;5077357;28;20457;-75
2022/05/25 10:50:47;;;;;;;1.70;1.60;;;20.80;86.10;;;;;;5067949;28;20492;-75
2022/05/25 10:53:27;;;;;;;3.57;1.67;;;20.70;86.60;;;;;;5081952;28;20467;-75
2022/05/25 10:56:07;;;;;;;1.80;1.47;;;20.80;87.20;;;;;;5075990;28;20453;-74
2022/05/25 10:58:50;;;;;;;1.67;1.40;;;21.00;84.50;;;;;;5061556;28;20475;-75
2022/05/25 11:01:35;;;;;;;1.47;1.40;;;21.30;84.90;;;;;;5077506;28;20459;-75
2022/05/25 11:04:21;;;;;;;1.20;1.20;;;21.60;85.20;;;;;;5078292;28;20464;-75
2022/05/25 11:06:58;;;;;;;1.67;1.40;;;21.80;84.20;;;;;;5080962;28;20472;-75
2022/05/25 11:09:42;;;;;;;1.77;1.50;;;22.20;84.10;;;;;;5076638;28;20565;-75
2022/05/25 11:12:20;;;;;;;1.60;1.43;;;22.60;83.90;;;;;;5077980;28;20453;-75
2022/05/25 11:15:02;;;;;;;1.53;1.40;;;23.10;82.80;;;;;;5080929;28;20548;-74
2022/05/25 11:17:51;;;;;;;1.80;1.60;;;23.30;80.60;;;;;;5081518;28;20927;-75
2022/05/25 11:20:25;;;;;;;1.70;1.60;;;23.70;79.80;;;;;;5088070;28;21000;-75
2022/05/25 11:23:27;;;;;;;1.90;1.60;;;23.90;80.10;;;;;;5085576;28;20464;-75
2022/05/25 11:26:14;;;;;;;1.40;1.27;;;24.20;80.40;;;;;;5053281;28;20457;-75
2022/05/25 11:28:55;;;;;;;1.53;1.30;;;24.00;78.20;;;;;;5080812;28;20453;-75
2022/05/25 11:31:36;;;;;;;1.87;1.67;;;24.20;76.40;;;;;;5081708;28;20465;-75
2022/05/25 11:34:26;;;;;;;1.40;1.33;;;24.30;82.30;;;;;;5085036;28;20503;-73
2022/05/25 11:37:11;;;;;;;1.47;1.40;;;24.30;76.70;;;;;;5078172;28;20876;-74
2022/05/25 11:39:49;;;;;;;1.60;1.40;;;24.60;78.40;;;;;;5066690;28;20464;-76
2022/05/25 11:42:29;;;;;;;1.50;1.37;;;24.40;75.20;;;;;;5083765;28;21017;-74
2022/05/25 11:45:09;;;;;;;1.40;1.20;;;24.10;76.60;;;;;;5081605;28;20456;-76
2022/05/25 11:47:56;;;;;;;1.67;1.30;;;23.50;79.30;;;;;;5081496;28;20452;-76
2022/05/25 11:50:37;;;;;;;1.20;1.17;;;23.00;78.50;;;;;;5078868;28;20498;-74
2022/05/25 11:53:42;;;;;;;1.80;1.50;;;22.70;80.10;;;;;;5076789;28;20481;-76
2022/05/25 11:56:32;;;;;;;1.73;1.40;;;22.50;80.00;;;;;;5076095;28;20457;-75
2022/05/25 11:59:17;;;;;;;2.10;1.60;;;22.90;80.80;;;;;;5066665;28;20453;-74
2022/05/25 12:01:49;;;;;;;1.30;1.23;;;23.80;81.90;;;;;;5084471;28;20465;-75
2022/05/25 12:04:41;;;;;;;1.80;1.37;;;24.40;75.30;;;;;;5069929;28;20461;-76
2022/05/25 12:07:21;;;;;;;1.50;1.33;;;24.80;76.70;;;;;;5080101;28;20444;-76
2022/05/25 12:10:04;;;;;;;2.37;1.70;;;25.30;75.40;;;;;;5081079;28;20488;-75
2022/05/25 12:12:40;;;;;;;1.40;1.20;;;25.70;75.60;;;;;;5083646;28;20459;-73
2022/05/25 12:15:13;;;;;;;1.93;1.60;;;25.80;72.90;;;;;;5081418;28;20781;-74
2022/05/25 12:17:54;;;;;;;2.87;1.47;;;25.90;74.30;;;;;;5085922;28;20510;-74
2022/05/25 12:20:29;;;;;;;1.70;1.40;;;26.20;76.20;;;;;;5079964;28;20465;-74
2022/05/25 12:23:01;;;;;;;3.20;1.67;;;26.40;72.10;;;;;;5076138;28;20459;-75
2022/05/25 12:25:28;;;;;;;1.60;1.27;;;26.10;73.50;;;;;;5082084;28;20464;-75
2022/05/25 12:27:58;;;;;;;1.70;1.40;;;26.40;72.10;;;;;;5076891;28;20551;-70
2022/05/25 12:30:33;;;;;;;1.40;1.40;;;26.30;69.90;;;;;;5077864;28;20531;-75
2022/05/25 12:33:06;;;;;;;2.33;1.30;;;25.70;69.60;;;;;;5081364;28;20466;-75
2022/05/25 12:35:36;;;;;;;1.50;1.20;;;25.30;70.60;;;;;;5086065;28;20487;-74
2022/05/25 12:38:07;;;;;;;1.87;1.40;;;25.60;75.50;;;;;;5084177;28;20482;-75
2022/05/25 12:40:46;;;;;;;1.83;1.40;;;25.80;71.20;;;;;;5082834;28;20460;-67
2022/05/25 12:43:52;;;;;;;1.60;1.37;;;25.80;71.60;;;;;;5084080;28;20459;-76
2022/05/25 12:49:44;;;;;;;2.23;1.50;;;25.30;76.70;;;;;;5087438;28;20856;-76
2022/05/25 12:52:43;;;;;;;1.40;1.30;;;25.70;72.20;;;;;;5084152;28;20452;-76
2022/05/25 12:55:31;;;;;;;1.40;1.33;;;25.90;71.30;;;;;;5085428;28;20456;-76
2022/05/25 12:57:58;;;;;;;2.00;1.40;;;26.30;72.10;;;;;;5091183;28;20461;-76
2022/05/25 13:00:42;;;;;;;1.80;1.43;;;26.30;68.70;;;;;;5090437;28;20452;-76
2022/05/25 13:03:36;;;;;;;1.80;1.50;;;26.30;71.10;;;;;;5085524;28;20961;-76
2022/05/25 13:06:06;;;;;;;1.30;1.30;;;26.40;69.60;;;;;;5087991;28;20475;-76
2022/05/25 13:09:08;;;;;;;2.27;1.50;;;26.80;70.10;;;;;;5087122;28;20460;-75
2022/05/25 13:11:39;;;;;;;2.13;1.40;;;27.20;67.90;;;;;;5094821;28;20483;-76
2022/05/25 13:14:45;;;;;;;1.30;1.20;;;27.40;66.60;;;;;;5088336;28;20941;-76
2022/05/25 13:17:49;;;;;;;1.73;1.43;;;27.20;67.50;;;;;;5086095;28;20467;-76
2022/05/25 13:20:55;;;;;;;1.60;1.30;;;26.80;66.30;;;;;;5089683;28;20463;-76
2022/05/25 13:24:05;;;;;;;1.53;1.40;;;26.90;67.90;;;;;;5090332;28;20464;-76
2022/05/25 13:26:49;;;;;;;8.10;1.50;;;26.90;69.50;;;;;;5035683;28;20545;-75
2022/05/25 13:29:24;;;;;;;1.40;1.30;;;27.40;70.40;;;;;;5092006;28;20467;-76
2022/05/25 13:31:58;;;;;;;1.57;1.40;;;27.80;68.00;;;;;;5088155;28;20494;-76
2022/05/25 13:34:31;;;;;;;1.40;1.30;;;28.10;68.30;;;;;;5072490;28;20542;-76
2022/05/25 13:37:01;;;;;;;1.50;1.30;;;28.60;66.60;;;;;;5086628;28;21009;-76
2022/05/25 13:39:30;;;;;;;1.30;1.30;;;28.60;65.10;;;;;;5087103;28;20490;-76
2022/05/25 13:42:01;;;;;;;1.47;1.40;;;28.30;63.80;;;;;;5086157;28;20509;-76